Nearby METAR Reports

 

KSJC - San Jose, California, USA
Distance from station: NE 14km
Actualización: 23/05/2019 17:53
Muy nuboso
Muy nuboso
 Viento del SSO
Viento: SSO 13 km/h, Racha: 28 km/h
Temperatura: 21°C
Rocío: 13°C
Humedad: 60%
Barómetro: 1010.8 hPa
Clouds: Muy nuboso
Visibility: 16 km
Cloud details: Few Clouds 274 m
Parcialmente nuboso 1676 m
Muy nuboso 2438 m
2019/05/24 00:53 KSJC 240053Z 20007G15KT 10SM FEW009 SCT055 BKN080 21/13 A2985 RMK AO2 SLP107 TCU DSNT NE T02060128
KNUQ - Moffett Nas/Mtn, California, USA
Distance from station: N 14km
Actualización: 23/05/2019 17:56
Parcialmente nuboso
Parcialmente nuboso
 Viento del N
Viento: N 24 km/h
Temperatura: 20°C
Rocío: 12°C
Humedad: 60%
Barómetro: 1011.2 hPa
Clouds: Parcialmente nuboso
Visibility: 16 km
Cloud details: Parcialmente nuboso 3658 m
2019/05/24 00:56 KNUQ 240056Z 35013KT 10SM SCT120 20/12 A2986 RMK AO2 SLP114 T02000122
 
KPAO - Palo Alto, California, USA
Distance from station: NNO 23km
Actualización: 23/05/2019 15:47
NOT Current
Parcialmente nuboso
Parcialmente nuboso
 Viento del N
Viento: N 17 km/h
Temperatura: 21°C
Rocío: 14°C
Humedad: 64%
Barómetro: 1009.8 hPa
Clouds: Parcialmente nuboso
Visibility: 16 km
Cloud details: Parcialmente nuboso 6096 m
2019/05/23 22:47 KPAO 232247Z 35009KT 10SM SCT200 21/14 A2982
KRHV - San Jose/Reid, California, USA
Distance from station: ENE 19km
Actualización: 23/05/2019 15:51
NOT Current
Muy nuboso
Muy nuboso
 Viento del S
Viento: S 20 km/h, Racha: 30 km/h
Temperatura: 23°C
Rocío: 12°C
Humedad: 50%
Barómetro: 1009.8 hPa
Clouds: Muy nuboso
Visibility: 16 km
Cloud details: Muy nuboso 1524 m
2019/05/23 22:51 KRHV 232251Z 18011G16KT 10SM BKN050 23/12 A2982
 
KOAK - Oakland, California, USA
Distance from station: NNO 50km
Actualización: 23/05/2019 17:53
Muy nuboso
Muy nuboso
 Viento del O
Viento: O 20 km/h
Temperatura: 18°C
Rocío: 11°C
Humedad: 64%
Barómetro: 1011.5 hPa
Clouds: Muy nuboso
Visibility: 16 km
Cloud details: Few Clouds 762 m
Muy nuboso 3658 m
2019/05/24 00:53 KOAK 240053Z 28011KT 10SM FEW025 BKN120 18/11 A2987 RMK AO2 SLP115 T01830111
KSQL - San Carlos Airpo, California, USA
Distance from station: NO 34km
Actualización: 23/05/2019 17:47
Parcialmente nuboso
Parcialmente nuboso
 Viento del OSO
Viento: OSO 15 km/h
Temperatura: 19°C
Rocío: 11°C
Humedad: 60%
Barómetro: 1010.8 hPa
Clouds: Parcialmente nuboso
Visibility: 16 km
Cloud details: Parcialmente nuboso 6096 m
2019/05/24 00:47 KSQL 240047Z 24008KT 10SM SCT200 19/11 A2985
 
KSFO - San Francisco, California, USA
Distance from station: NO 49km
Actualización: 23/05/2019 17:56
Parcialmente nuboso
Parcialmente nuboso
 Viento del SSO
Viento: SSO 17 km/h
Temperatura: 18°C
Rocío: 11°C
Humedad: 64%
Barómetro: 1010.8 hPa
Clouds: Parcialmente nuboso
Visibility: 16 km
Cloud details: Few Clouds 549 m
Few Clouds 1829 m
Parcialmente nuboso 4572 m
2019/05/24 00:56 KSFO 240056Z 20009KT 10SM FEW018 FEW060 SCT150 18/11 A2985 RMK AO2 SLP109 T01780106
KE16 - San Martin, California, USA
Distance from station: ESE 43km
Actualización: 19/05/2019 10:45
NOT Current
Parcialmente nuboso
Parcialmente nuboso
 Viento del SE
Viento: SE 17 km/h
Temperatura: 12°C
Rocío: 10°C
Humedad: 88%
Barómetro: 1010.2 hPa
Clouds: Parcialmente nuboso
Visibility: 16 km
Cloud details: Few Clouds 1463 m
Parcialmente nuboso 1676 m
2019/05/19 17:45 KE16 191745Z AUTO 13009KT 10SM FEW048 SCT055 12/10 A2983 RMK AO2
 
KWVI - Watsonville, California, USA
Distance from station: SSE 44km
Actualización: 23/05/2019 17:53
Cubierto
Cubierto
 Viento del varies
Viento: varies 6 km/h
Temperatura: 16°C
Rocío: 11°C
Humedad: 72%
Barómetro: 1013.2 hPa
Clouds: Cubierto
Visibility: 16 km
Cloud details: Cubierto 701 m
2019/05/24 00:53 KWVI 240053Z AUTO VRB03KT 10SM OVC023 16/11 A2992 RMK AO2 SLP130 T01560111
KHAF - Half Moon Bay, California, USA
Distance from station: ONO 50km
Actualización: 23/05/2019 18:40
Mist, Cubierto
Mist, Cubierto
 Viento del SSE
Viento: SSE 11 km/h
Temperatura: 13°C
Rocío: 12°C
Humedad: 94%
Barómetro: 1012.5 hPa
Resumen: Mist
Clouds: Cubierto
Visibility: 6 km
Cloud details: Cubierto 549 m
2019/05/24 01:40 KHAF 240140Z AUTO 16006KT 4SM BR OVC018 13/12 A2990 RMK AO2
 
KHWD - Hayward, California, USA
Distance from station: N 44km
Actualización: 23/05/2019 17:54
Parcialmente nuboso
Parcialmente nuboso
 Viento del O
Viento: O 17 km/h
Temperatura: 18°C
Rocío: 12°C
Humedad: 68%
Barómetro: 1010.8 hPa
Clouds: Parcialmente nuboso
Visibility: 16 km
Cloud details: Parcialmente nuboso 3658 m
2019/05/24 00:54 KHWD 240054Z 28009KT 10SM SCT120 18/12 A2985 RMK AO2 SLP119 T01830117
KLVK - Livermore, California, USA
Distance from station: NNE 51km
Actualización: 23/05/2019 17:53
Muy nuboso
Muy nuboso
 Viento del ONO
Viento: ONO 19 km/h
Temperatura: 22°C
Rocío: 12°C
Humedad: 53%
Barómetro: 1010.2 hPa
Clouds: Muy nuboso
Visibility: 13 km
Cloud details: Parcialmente nuboso 2134 m
Muy nuboso 3658 m
2019/05/24 00:53 KLVK 240053Z 29010KT 8SM SCT070 BKN120 22/12 A2983 RMK AO2 SLP097 T02220122